メインページ
METAR-TAF:

METAR-TAF

空港 :

Kirsch Municipal Airport

Sturgis, ミシガン州, アメリカ合衆国

緯度: 41-48-46N, 経度: 085-26-21W, 海抜: 282m

現時点の気象観測

当レポートは9分前の13:55(UTC)に作成
西/北西の風 10kt、最大14ktの突風を伴う
気温 -2°C
湿度 74%
気圧 1017 hPa
視程: 16.1km
高度2000ftの千切れ雲あり
高度2600ftの曇り

METAR: KIRS 151355Z AUTO 29010G14KT 10SM BKN020 OVC026 M02/M06 A3002 RMK AO2 T10251065

時間: 09:04 (14:04 UTC)


TAF: 見つかりません

4,000以上の空港の気象観測と天気予報(METAR報とTAF報)

利用可能な観測所は地図上に黄色い丸と赤い丸で示す。

丸の上にカーソルを重ねると観測所名を参照できる。

次にクリックすると気象観測と天気予報を参照できる。

マップの切り替え:黒色「×」印の緑ボタンをクリックして拡大、「-」印の緑ボタンをクリックして縮小、緑色の三角印をクリックして隣りの地図に切り替え


METAR-TAF: